sensor_id;sensor_type;location;lat;lon;timestamp;pressure;altitude;pressure_sealevel;temperature;humidity
60089;BME280;45961;53.574;55.878;2024-01-27T00:00:20;101116.09;;;-10.16;78.42
60089;BME280;45961;53.574;55.878;2024-01-27T00:01:21;101118.81;;;-10.22;78.20
60089;BME280;45961;53.574;55.878;2024-01-27T00:02:22;101111.72;;;-10.10;78.36
60089;BME280;45961;53.574;55.878;2024-01-27T00:03:22;101114.88;;;-10.04;78.09
60089;BME280;45961;53.574;55.878;2024-01-27T00:04:23;101117.13;;;-10.14;78.00
60089;BME280;45961;53.574;55.878;2024-01-27T00:05:24;101122.78;;;-10.24;77.98
60089;BME280;45961;53.574;55.878;2024-01-27T00:06:24;101121.03;;;-10.25;78.06
60089;BME280;45961;53.574;55.878;2024-01-27T00:07:25;101125.16;;;-10.26;78.17
60089;BME280;45961;53.574;55.878;2024-01-27T00:08:27;101119.88;;;-10.20;78.12
60089;BME280;45961;53.574;55.878;2024-01-27T00:09:28;101124.50;;;-10.16;77.98
60089;BME280;45961;53.574;55.878;2024-01-27T00:10:28;101126.41;;;-10.13;78.17
60089;BME280;45961;53.574;55.878;2024-01-27T00:11:29;101116.56;;;-10.12;78.05
60089;BME280;45961;53.574;55.878;2024-01-27T00:12:30;101131.41;;;-10.13;78.08
60089;BME280;45961;53.574;55.878;2024-01-27T00:13:30;101125.59;;;-10.21;77.85
60089;BME280;45961;53.574;55.878;2024-01-27T00:14:31;101131.34;;;-10.22;77.92
60089;BME280;45961;53.574;55.878;2024-01-27T00:15:32;101128.09;;;-10.21;77.95
60089;BME280;45961;53.574;55.878;2024-01-27T00:16:32;101131.78;;;-10.26;78.10
60089;BME280;45961;53.574;55.878;2024-01-27T00:17:34;101134.34;;;-10.33;77.97
60089;BME280;45961;53.574;55.878;2024-01-27T00:18:36;101132.81;;;-10.24;78.05
60089;BME280;45961;53.574;55.878;2024-01-27T00:19:37;101127.88;;;-10.15;78.18
60089;BME280;45961;53.574;55.878;2024-01-27T00:20:38;101122.94;;;-10.07;78.07
60089;BME280;45961;53.574;55.878;2024-01-27T00:21:39;101121.16;;;-10.08;77.84
60089;BME280;45961;53.574;55.878;2024-01-27T00:22:40;101126.13;;;-10.16;77.78
60089;BME280;45961;53.574;55.878;2024-01-27T00:23:40;101128.34;;;-10.11;77.76
60089;BME280;45961;53.574;55.878;2024-01-27T00:24:41;101125.69;;;-10.12;77.63
60089;BME280;45961;53.574;55.878;2024-01-27T00:25:42;101131.13;;;-10.16;77.83
60089;BME280;45961;53.574;55.878;2024-01-27T00:26:43;101123.28;;;-10.20;77.77
60089;BME280;45961;53.574;55.878;2024-01-27T00:27:44;101119.63;;;-10.14;77.71
60089;BME280;45961;53.574;55.878;2024-01-27T00:28:45;101117.88;;;-10.15;77.62
60089;BME280;45961;53.574;55.878;2024-01-27T00:29:45;101122.94;;;-10.23;77.52
60089;BME280;45961;53.574;55.878;2024-01-27T00:30:46;101128.94;;;-10.29;77.50
60089;BME280;45961;53.574;55.878;2024-01-27T00:31:47;101133.66;;;-10.32;77.58
60089;BME280;45961;53.574;55.878;2024-01-27T00:32:49;101129.56;;;-10.23;77.66
60089;BME280;45961;53.574;55.878;2024-01-27T00:33:50;101122.78;;;-10.24;77.66
60089;BME280;45961;53.574;55.878;2024-01-27T00:34:51;101125.44;;;-10.23;77.67
60089;BME280;45961;53.574;55.878;2024-01-27T00:35:51;101121.31;;;-10.22;77.65
60089;BME280;45961;53.574;55.878;2024-01-27T00:36:52;101125.88;;;-10.27;77.73
60089;BME280;45961;53.574;55.878;2024-01-27T00:37:53;101125.44;;;-10.23;77.88
60089;BME280;45961;53.574;55.878;2024-01-27T00:38:54;101128.25;;;-10.28;77.80
60089;BME280;45961;53.574;55.878;2024-01-27T00:39:54;101124.84;;;-10.29;77.99
60089;BME280;45961;53.574;55.878;2024-01-27T00:40:55;101137.44;;;-10.36;78.03
60089;BME280;45961;53.574;55.878;2024-01-27T00:41:56;101124.00;;;-10.21;78.17
60089;BME280;45961;53.574;55.878;2024-01-27T00:42:58;101127.81;;;-10.24;78.24
60089;BME280;45961;53.574;55.878;2024-01-27T00:43:59;101129.13;;;-10.43;78.23
60089;BME280;45961;53.574;55.878;2024-01-27T00:45:00;101132.34;;;-10.45;78.46
60089;BME280;45961;53.574;55.878;2024-01-27T00:46:00;101128.88;;;-10.38;78.56
60089;BME280;45961;53.574;55.878;2024-01-27T00:47:02;101134.47;;;-10.40;78.54
60089;BME280;45961;53.574;55.878;2024-01-27T00:48:03;101147.91;;;-10.47;78.57
60089;BME280;45961;53.574;55.878;2024-01-27T00:49:04;101139.69;;;-10.46;78.74
60089;BME280;45961;53.574;55.878;2024-01-27T00:50:05;101144.25;;;-10.58;78.49
60089;BME280;45961;53.574;55.878;2024-01-27T00:51:06;101143.88;;;-10.54;78.75
60089;BME280;45961;53.574;55.878;2024-01-27T00:52:07;101144.34;;;-10.65;78.68
60089;BME280;45961;53.574;55.878;2024-01-27T00:53:08;101143.16;;;-10.53;78.89
60089;BME280;45961;53.574;55.878;2024-01-27T00:54:08;101126.28;;;-10.47;78.86
60089;BME280;45961;53.574;55.878;2024-01-27T00:55:10;101134.94;;;-10.52;78.84
60089;BME280;45961;53.574;55.878;2024-01-27T00:56:10;101131.97;;;-10.40;78.75
60089;BME280;45961;53.574;55.878;2024-01-27T00:57:11;101127.84;;;-10.40;78.74
60089;BME280;45961;53.574;55.878;2024-01-27T00:58:12;101134.59;;;-10.55;78.62
60089;BME280;45961;53.574;55.878;2024-01-27T00:59:13;101135.97;;;-10.50;78.66
60089;BME280;45961;53.574;55.878;2024-01-27T01:00:13;101135.38;;;-10.63;78.70
60089;BME280;45961;53.574;55.878;2024-01-27T01:01:15;101128.84;;;-10.54;78.89
60089;BME280;45961;53.574;55.878;2024-01-27T01:02:15;101126.47;;;-10.45;78.91
60089;BME280;45961;53.574;55.878;2024-01-27T01:03:16;101128.06;;;-10.46;78.74
60089;BME280;45961;53.574;55.878;2024-01-27T01:04:17;101128.63;;;-10.48;78.72
60089;BME280;45961;53.574;55.878;2024-01-27T01:05:17;101137.00;;;-10.63;78.63
60089;BME280;45961;53.574;55.878;2024-01-27T01:06:18;101133.44;;;-10.65;78.78
60089;BME280;45961;53.574;55.878;2024-01-27T01:07:19;101127.81;;;-10.56;78.79
60089;BME280;45961;53.574;55.878;2024-01-27T01:08:20;101131.34;;;-10.70;78.55
60089;BME280;45961;53.574;55.878;2024-01-27T01:09:20;101123.03;;;-10.61;78.82
60089;BME280;45961;53.574;55.878;2024-01-27T01:10:22;101127.34;;;-10.60;78.70
60089;BME280;45961;53.574;55.878;2024-01-27T01:11:23;101136.13;;;-10.64;78.57
60089;BME280;45961;53.574;55.878;2024-01-27T01:12:24;101118.69;;;-10.55;78.61
60089;BME280;45961;53.574;55.878;2024-01-27T01:13:28;101122.81;;;-10.56;78.40
60089;BME280;45961;53.574;55.878;2024-01-27T01:14:28;101115.72;;;-10.60;78.39
60089;BME280;45961;53.574;55.878;2024-01-27T01:15:29;101112.16;;;-10.62;78.37
60089;BME280;45961;53.574;55.878;2024-01-27T01:16:30;101114.25;;;-10.58;78.40
60089;BME280;45961;53.574;55.878;2024-01-27T01:17:30;101119.09;;;-10.59;78.14
60089;BME280;45961;53.574;55.878;2024-01-27T01:18:31;101111.59;;;-10.59;78.34
60089;BME280;45961;53.574;55.878;2024-01-27T01:19:32;101113.22;;;-10.60;78.17
60089;BME280;45961;53.574;55.878;2024-01-27T01:20:33;101107.88;;;-10.63;78.10
60089;BME280;45961;53.574;55.878;2024-01-27T01:21:33;101111.94;;;-10.56;78.19
60089;BME280;45961;53.574;55.878;2024-01-27T01:22:34;101105.53;;;-10.77;78.15
60089;BME280;45961;53.574;55.878;2024-01-27T01:23:35;101106.22;;;-10.78;78.28
60089;BME280;45961;53.574;55.878;2024-01-27T01:24:35;101108.72;;;-10.78;78.19
60089;BME280;45961;53.574;55.878;2024-01-27T01:25:37;101110.84;;;-10.74;78.21
60089;BME280;45961;53.574;55.878;2024-01-27T01:26:37;101102.13;;;-10.62;78.16
60089;BME280;45961;53.574;55.878;2024-01-27T01:27:38;101105.28;;;-10.72;77.98
60089;BME280;45961;53.574;55.878;2024-01-27T01:28:39;101104.00;;;-10.68;78.06
60089;BME280;45961;53.574;55.878;2024-01-27T01:29:40;101104.75;;;-10.69;78.04
60089;BME280;45961;53.574;55.878;2024-01-27T01:30:40;101101.31;;;-10.70;78.04
60089;BME280;45961;53.574;55.878;2024-01-27T01:31:44;101106.25;;;-10.62;77.99
60089;BME280;45961;53.574;55.878;2024-01-27T01:32:44;101107.31;;;-10.76;78.00
60089;BME280;45961;53.574;55.878;2024-01-27T01:33:45;101102.31;;;-10.76;78.01
60089;BME280;45961;53.574;55.878;2024-01-27T01:34:46;101099.88;;;-10.67;77.98
60089;BME280;45961;53.574;55.878;2024-01-27T01:35:47;101091.59;;;-10.59;78.02
60089;BME280;45961;53.574;55.878;2024-01-27T01:36:47;101098.28;;;-10.67;77.72
60089;BME280;45961;53.574;55.878;2024-01-27T01:37:48;101097.94;;;-10.54;77.80
60089;BME280;45961;53.574;55.878;2024-01-27T01:38:50;101100.84;;;-10.58;77.57
60089;BME280;45961;53.574;55.878;2024-01-27T01:39:51;101096.09;;;-10.64;77.49
60089;BME280;45961;53.574;55.878;2024-01-27T01:40:52;101104.81;;;-10.76;77.41
60089;BME280;45961;53.574;55.878;2024-01-27T01:41:52;101108.28;;;-10.67;77.48
60089;BME280;45961;53.574;55.878;2024-01-27T01:42:53;101107.06;;;-10.71;77.46
60089;BME280;45961;53.574;55.878;2024-01-27T01:43:54;101106.16;;;-10.71;77.47
60089;BME280;45961;53.574;55.878;2024-01-27T01:44:54;101102.53;;;-10.66;77.45
60089;BME280;45961;53.574;55.878;2024-01-27T01:45:55;101101.91;;;-10.56;77.30
60089;BME280;45961;53.574;55.878;2024-01-27T01:46:56;101104.56;;;-10.55;77.23
60089;BME280;45961;53.574;55.878;2024-01-27T01:47:57;101101.34;;;-10.54;77.19
60089;BME280;45961;53.574;55.878;2024-01-27T01:48:58;101098.59;;;-10.64;77.16
60089;BME280;45961;53.574;55.878;2024-01-27T01:49:59;101098.75;;;-10.62;77.11
60089;BME280;45961;53.574;55.878;2024-01-27T01:51:00;101092.88;;;-10.63;77.08
60089;BME280;45961;53.574;55.878;2024-01-27T01:52:01;101099.00;;;-10.68;77.19
60089;BME280;45961;53.574;55.878;2024-01-27T01:53:01;101097.06;;;-10.71;77.33
60089;BME280;45961;53.574;55.878;2024-01-27T01:54:02;101094.22;;;-10.74;77.30
60089;BME280;45961;53.574;55.878;2024-01-27T01:55:03;101105.44;;;-10.70;77.43
60089;BME280;45961;53.574;55.878;2024-01-27T01:56:05;101098.66;;;-10.71;77.46
60089;BME280;45961;53.574;55.878;2024-01-27T01:57:09;101100.13;;;-10.73;77.31
60089;BME280;45961;53.574;55.878;2024-01-27T01:58:10;101101.31;;;-10.70;77.45
60089;BME280;45961;53.574;55.878;2024-01-27T01:59:10;101105.13;;;-10.73;77.40
60089;BME280;45961;53.574;55.878;2024-01-27T02:00:12;101107.44;;;-10.75;77.37
60089;BME280;45961;53.574;55.878;2024-01-27T02:01:14;101099.72;;;-10.85;77.17
60089;BME280;45961;53.574;55.878;2024-01-27T02:02:15;101100.44;;;-10.70;77.44
60089;BME280;45961;53.574;55.878;2024-01-27T02:03:16;101112.75;;;-10.87;77.34
60089;BME280;45961;53.574;55.878;2024-01-27T02:04:17;101104.88;;;-10.83;77.75
60089;BME280;45961;53.574;55.878;2024-01-27T02:05:18;101105.59;;;-10.84;77.31
60089;BME280;45961;53.574;55.878;2024-01-27T02:06:19;101104.59;;;-10.94;77.39
60089;BME280;45961;53.574;55.878;2024-01-27T02:07:20;101107.75;;;-10.87;77.41
60089;BME280;45961;53.574;55.878;2024-01-27T02:08:21;101111.56;;;-10.75;77.28
60089;BME280;45961;53.574;55.878;2024-01-27T02:09:22;101101.66;;;-10.66;77.29
60089;BME280;45961;53.574;55.878;2024-01-27T02:10:23;101104.63;;;-10.78;77.17
60089;BME280;45961;53.574;55.878;2024-01-27T02:11:24;101101.47;;;-10.84;76.98
60089;BME280;45961;53.574;55.878;2024-01-27T02:12:24;101107.13;;;-10.78;77.07
60089;BME280;45961;53.574;55.878;2024-01-27T02:13:25;101107.63;;;-10.73;76.88
60089;BME280;45961;53.574;55.878;2024-01-27T02:14:27;101109.06;;;-10.75;76.87
60089;BME280;45961;53.574;55.878;2024-01-27T02:15:28;101114.09;;;-10.98;76.71
60089;BME280;45961;53.574;55.878;2024-01-27T02:16:28;101116.09;;;-11.03;76.77
60089;BME280;45961;53.574;55.878;2024-01-27T02:17:29;101115.59;;;-11.07;76.86
60089;BME280;45961;53.574;55.878;2024-01-27T02:18:30;101110.28;;;-11.10;76.83
60089;BME280;45961;53.574;55.878;2024-01-27T02:19:31;101113.50;;;-11.11;76.95
60089;BME280;45961;53.574;55.878;2024-01-27T02:20:33;101113.16;;;-11.14;76.85
60089;BME280;45961;53.574;55.878;2024-01-27T02:21:34;101115.91;;;-11.20;76.88
60089;BME280;45961;53.574;55.878;2024-01-27T02:22:34;101113.09;;;-11.07;77.10
60089;BME280;45961;53.574;55.878;2024-01-27T02:23:35;101112.28;;;-11.15;77.12
60089;BME280;45961;53.574;55.878;2024-01-27T02:24:36;101112.63;;;-11.12;76.93
60089;BME280;45961;53.574;55.878;2024-01-27T02:25:37;101117.63;;;-11.12;76.90
60089;BME280;45961;53.574;55.878;2024-01-27T02:26:37;101125.22;;;-11.26;76.69
60089;BME280;45961;53.574;55.878;2024-01-27T02:27:38;101125.22;;;-11.26;76.80
60089;BME280;45961;53.574;55.878;2024-01-27T02:28:39;101123.34;;;-11.36;76.55
60089;BME280;45961;53.574;55.878;2024-01-27T02:29:40;101112.66;;;-11.19;76.65
60089;BME280;45961;53.574;55.878;2024-01-27T02:30:40;101116.25;;;-11.17;76.46
60089;BME280;45961;53.574;55.878;2024-01-27T02:31:42;101121.28;;;-11.24;76.39
60089;BME280;45961;53.574;55.878;2024-01-27T02:32:42;101111.06;;;-11.19;76.35
60089;BME280;45961;53.574;55.878;2024-01-27T02:33:43;101122.00;;;-11.25;76.26
60089;BME280;45961;53.574;55.878;2024-01-27T02:34:44;101123.06;;;-11.23;76.15
60089;BME280;45961;53.574;55.878;2024-01-27T02:35:45;101116.63;;;-11.21;76.19
60089;BME280;45961;53.574;55.878;2024-01-27T02:36:45;101125.28;;;-11.33;76.15
60089;BME280;45961;53.574;55.878;2024-01-27T02:37:47;101122.00;;;-11.25;76.33
60089;BME280;45961;53.574;55.878;2024-01-27T02:38:47;101115.91;;;-11.20;76.20
60089;BME280;45961;53.574;55.878;2024-01-27T02:39:48;101119.00;;;-11.30;76.00
60089;BME280;45961;53.574;55.878;2024-01-27T02:40:49;101124.25;;;-11.43;75.98
60089;BME280;45961;53.574;55.878;2024-01-27T02:41:50;101129.97;;;-11.44;75.99
60089;BME280;45961;53.574;55.878;2024-01-27T02:42:50;101129.53;;;-11.55;76.13
60089;BME280;45961;53.574;55.878;2024-01-27T02:43:51;101132.19;;;-11.54;76.26
60089;BME280;45961;53.574;55.878;2024-01-27T02:44:52;101138.78;;;-11.54;76.43
60089;BME280;45961;53.574;55.878;2024-01-27T02:45:52;101139.28;;;-11.50;76.32
60089;BME280;45961;53.574;55.878;2024-01-27T02:46:53;101139.13;;;-11.51;76.38
60089;BME280;45961;53.574;55.878;2024-01-27T02:47:54;101136.97;;;-11.48;76.40
60089;BME280;45961;53.574;55.878;2024-01-27T02:48:55;101149.63;;;-11.47;76.57
60089;BME280;45961;53.574;55.878;2024-01-27T02:49:55;101137.31;;;-11.45;76.50
60089;BME280;45961;53.574;55.878;2024-01-27T02:50:57;101142.31;;;-11.45;76.58
60089;BME280;45961;53.574;55.878;2024-01-27T02:51:57;101142.50;;;-11.51;76.62
60089;BME280;45961;53.574;55.878;2024-01-27T02:52:58;101137.91;;;-11.55;76.69
60089;BME280;45961;53.574;55.878;2024-01-27T02:53:59;101147.38;;;-11.59;76.84
60089;BME280;45961;53.574;55.878;2024-01-27T02:55:00;101143.63;;;-11.56;76.89
60089;BME280;45961;53.574;55.878;2024-01-27T02:56:01;101147.03;;;-11.62;76.96
60089;BME280;45961;53.574;55.878;2024-01-27T02:57:02;101146.34;;;-11.61;76.87
60089;BME280;45961;53.574;55.878;2024-01-27T02:58:03;101141.84;;;-11.57;76.93
60089;BME280;45961;53.574;55.878;2024-01-27T02:59:05;101142.53;;;-11.58;77.02
60089;BME280;45961;53.574;55.878;2024-01-27T03:00:05;101135.75;;;-11.52;76.99
60089;BME280;45961;53.574;55.878;2024-01-27T03:01:06;101133.97;;;-11.53;77.05
60089;BME280;45961;53.574;55.878;2024-01-27T03:02:07;101137.47;;;-11.44;76.94
60089;BME280;45961;53.574;55.878;2024-01-27T03:03:08;101135.88;;;-11.43;76.71
60089;BME280;45961;53.574;55.878;2024-01-27T03:04:09;101137.09;;;-11.39;76.68
60089;BME280;45961;53.574;55.878;2024-01-27T03:05:10;101138.38;;;-11.43;76.42
60089;BME280;45961;53.574;55.878;2024-01-27T03:06:14;101138.72;;;-11.40;76.57
60089;BME280;45961;53.574;55.878;2024-01-27T03:07:16;101136.31;;;-11.31;76.48
60089;BME280;45961;53.574;55.878;2024-01-27T03:08:16;101130.59;;;-11.30;76.37
60089;BME280;45961;53.574;55.878;2024-01-27T03:09:17;101127.44;;;-11.36;76.25
60089;BME280;45961;53.574;55.878;2024-01-27T03:10:18;101129.22;;;-11.35;76.26
60089;BME280;45961;53.574;55.878;2024-01-27T03:11:19;101131.09;;;-11.49;76.28
60089;BME280;45961;53.574;55.878;2024-01-27T03:12:20;101133.03;;;-11.46;76.38
60089;BME280;45961;53.574;55.878;2024-01-27T03:13:24;101127.91;;;-11.55;76.18
60089;BME280;45961;53.574;55.878;2024-01-27T03:14:25;101134.88;;;-11.52;76.51
60089;BME280;45961;53.574;55.878;2024-01-27T03:15:25;101124.44;;;-11.41;76.61
60089;BME280;45961;53.574;55.878;2024-01-27T03:16:26;101129.13;;;-11.51;76.70
60089;BME280;45961;53.574;55.878;2024-01-27T03:17:27;101128.41;;;-11.50;76.72
60089;BME280;45961;53.574;55.878;2024-01-27T03:18:28;101126.13;;;-11.56;76.87
60089;BME280;45961;53.574;55.878;2024-01-27T03:19:28;101123.66;;;-11.56;76.92
60089;BME280;45961;53.574;55.878;2024-01-27T03:20:29;101122.56;;;-11.58;76.92
60089;BME280;45961;53.574;55.878;2024-01-27T03:21:31;101127.56;;;-11.58;77.08
60089;BME280;45961;53.574;55.878;2024-01-27T03:22:32;101130.06;;;-11.58;77.02
60089;BME280;45961;53.574;55.878;2024-01-27T03:23:33;101124.88;;;-11.52;77.15
60089;BME280;45961;53.574;55.878;2024-01-27T03:24:34;101130.63;;;-11.60;77.09
60089;BME280;45961;53.574;55.878;2024-01-27T03:25:35;101126.13;;;-11.56;77.21
60089;BME280;45961;53.574;55.878;2024-01-27T03:26:36;101121.16;;;-11.56;77.40
60089;BME280;45961;53.574;55.878;2024-01-27T03:27:37;101123.66;;;-11.56;77.38
60089;BME280;45961;53.574;55.878;2024-01-27T03:28:38;101123.09;;;-11.53;77.48
60089;BME280;45961;53.574;55.878;2024-01-27T03:29:38;101119.31;;;-11.50;77.42
60089;BME280;45961;53.574;55.878;2024-01-27T03:30:39;101121.66;;;-11.51;77.35
60089;BME280;45961;53.574;55.878;2024-01-27T03:31:40;101119.00;;;-11.53;77.34
60089;BME280;45961;53.574;55.878;2024-01-27T03:32:41;101117.84;;;-11.40;77.43
60089;BME280;45961;53.574;55.878;2024-01-27T03:33:42;101119.31;;;-11.50;77.17
60089;BME280;45961;53.574;55.878;2024-01-27T03:34:45;101121.00;;;-11.34;77.18
60089;BME280;45961;53.574;55.878;2024-01-27T03:35:46;101118.00;;;-11.39;77.02
60089;BME280;45961;53.574;55.878;2024-01-27T03:36:49;101123.56;;;-11.41;76.97
60089;BME280;45961;53.574;55.878;2024-01-27T03:37:50;101132.38;;;-11.52;77.05
60089;BME280;45961;53.574;55.878;2024-01-27T03:38:51;101126.13;;;-11.56;77.04
60089;BME280;45961;53.574;55.878;2024-01-27T03:39:55;101126.53;;;-11.60;77.13
60089;BME280;45961;53.574;55.878;2024-01-27T03:40:56;101126.53;;;-11.60;77.09
60089;BME280;45961;53.574;55.878;2024-01-27T03:41:57;101124.25;;;-11.65;77.17
60089;BME280;45961;53.574;55.878;2024-01-27T03:42:58;101131.19;;;-11.70;77.24
60089;BME280;45961;53.574;55.878;2024-01-27T03:43:58;101127.28;;;-11.68;77.39
60089;BME280;45961;53.574;55.878;2024-01-27T03:44:59;101130.81;;;-11.66;77.52
60089;BME280;45961;53.574;55.878;2024-01-27T03:46:00;101129.63;;;-11.70;77.52
60089;BME280;45961;53.574;55.878;2024-01-27T03:47:02;101129.44;;;-11.71;77.51
60089;BME280;45961;53.574;55.878;2024-01-27T03:48:03;101130.53;;;-11.76;77.50
60089;BME280;45961;53.574;55.878;2024-01-27T03:49:03;101124.06;;;-11.67;77.56
60089;BME280;45961;53.574;55.878;2024-01-27T03:50:04;101124.91;;;-11.59;77.69
60089;BME280;45961;53.574;55.878;2024-01-27T03:51:05;101127.41;;;-11.59;77.66
60089;BME280;45961;53.574;55.878;2024-01-27T03:52:06;101133.00;;;-11.69;77.55
60089;BME280;45961;53.574;55.878;2024-01-27T03:53:07;101141.38;;;-11.69;77.47
60089;BME280;45961;53.574;55.878;2024-01-27T03:54:08;101131.75;;;-11.65;77.51
60089;BME280;45961;53.574;55.878;2024-01-27T03:55:08;101134.41;;;-11.64;77.54
60089;BME280;45961;53.574;55.878;2024-01-27T03:56:12;101130.28;;;-11.63;77.42
60089;BME280;45961;53.574;55.878;2024-01-27T03:57:13;101132.41;;;-11.59;77.42
60089;BME280;45961;53.574;55.878;2024-01-27T03:58:14;101140.13;;;-11.65;77.45
60089;BME280;45961;53.574;55.878;2024-01-27T03:59:14;101127.56;;;-11.58;77.35
60089;BME280;45961;53.574;55.878;2024-01-27T04:00:15;101129.06;;;-11.67;77.32
60089;BME280;45961;53.574;55.878;2024-01-27T04:01:16;101131.75;;;-11.65;77.26
60089;BME280;45961;53.574;55.878;2024-01-27T04:02:17;101127.63;;;-11.65;77.36
60089;BME280;45961;53.574;55.878;2024-01-27T04:03:18;101126.78;;;-11.73;77.39
60089;BME280;45961;53.574;55.878;2024-01-27T04:04:18;101124.28;;;-11.73;77.38
60089;BME280;45961;53.574;55.878;2024-01-27T04:05:19;101123.41;;;-11.73;77.45
60089;BME280;45961;53.574;55.878;2024-01-27T04:06:20;101129.06;;;-11.67;77.59
60089;BME280;45961;53.574;55.878;2024-01-27T04:07:21;101129.44;;;-11.71;77.57
60089;BME280;45961;53.574;55.878;2024-01-27T04:08:21;101126.06;;;-11.72;77.76
60089;BME280;45961;53.574;55.878;2024-01-27T04:09:22;101123.91;;;-11.69;77.63
60089;BME280;45961;53.574;55.878;2024-01-27T04:10:24;101130.88;;;-11.73;77.75
60089;BME280;45961;53.574;55.878;2024-01-27T04:11:25;101126.09;;;-11.79;77.69
60089;BME280;45961;53.574;55.878;2024-01-27T04:12:25;101116.94;;;-11.71;77.68
60089;BME280;45961;53.574;55.878;2024-01-27T04:13:26;101130.50;;;-11.69;77.67
60089;BME280;45961;53.574;55.878;2024-01-27T04:14:27;101130.88;;;-11.73;77.61
60089;BME280;45961;53.574;55.878;2024-01-27T04:15:27;101132.31;;;-11.75;77.68
60089;BME280;45961;53.574;55.878;2024-01-27T04:16:28;101127.94;;;-11.62;77.73
60089;BME280;45961;53.574;55.878;2024-01-27T04:17:30;101124.69;;;-11.54;77.62
60089;BME280;45961;53.574;55.878;2024-01-27T04:18:38;101128.69;;;-11.63;77.48
60089;BME280;45961;53.574;55.878;2024-01-27T04:19:38;101125.44;;;-11.62;77.53
60089;BME280;45961;53.574;55.878;2024-01-27T04:20:39;101133.91;;;-11.69;77.63
60089;BME280;45961;53.574;55.878;2024-01-27T04:21:40;101129.75;;;-11.61;77.58
60089;BME280;45961;53.574;55.878;2024-01-27T04:22:43;101122.28;;;-11.68;77.52
60089;BME280;45961;53.574;55.878;2024-01-27T04:23:44;101136.03;;;-11.72;77.57
60089;BME280;45961;53.574;55.878;2024-01-27T04:24:44;101143.03;;;-11.76;77.55
60089;BME280;45961;53.574;55.878;2024-01-27T04:25:45;101141.56;;;-11.74;77.63
60089;BME280;45961;53.574;55.878;2024-01-27T04:26:46;101147.63;;;-11.72;77.79
60089;BME280;45961;53.574;55.878;2024-01-27T04:27:46;101143.91;;;-11.76;77.81
60089;BME280;45961;53.574;55.878;2024-01-27T04:28:47;101145.16;;;-11.72;77.78
60089;BME280;45961;53.574;55.878;2024-01-27T04:29:48;101143.38;;;-11.73;77.88
60089;BME280;45961;53.574;55.878;2024-01-27T04:30:49;101149.44;;;-11.78;77.87
60089;BME280;45961;53.574;55.878;2024-01-27T04:31:50;101151.78;;;-11.80;77.75
60089;BME280;45961;53.574;55.878;2024-01-27T04:32:50;101152.31;;;-11.82;77.73
60089;BME280;45961;53.574;55.878;2024-01-27T04:33:52;101150.53;;;-11.76;77.90
60089;BME280;45961;53.574;55.878;2024-01-27T04:34:53;101143.88;;;-11.69;77.84
60089;BME280;45961;53.574;55.878;2024-01-27T04:35:54;101144.22;;;-11.65;77.69
60089;BME280;45961;53.574;55.878;2024-01-27T04:36:54;101145.88;;;-11.73;77.67
60089;BME280;45961;53.574;55.878;2024-01-27T04:37:55;101143.47;;;-11.57;77.96
60089;BME280;45961;53.574;55.878;2024-01-27T04:38:56;101142.75;;;-11.56;77.38
60089;BME280;45961;53.574;55.878;2024-01-27T04:39:56;101134.00;;;-11.60;77.43
60089;BME280;45961;53.574;55.878;2024-01-27T04:40:57;101128.69;;;-11.63;77.37
60089;BME280;45961;53.574;55.878;2024-01-27T04:41:58;101131.88;;;-11.57;77.38
60089;BME280;45961;53.574;55.878;2024-01-27T04:42:59;101137.94;;;-11.62;77.41
60089;BME280;45961;53.574;55.878;2024-01-27T04:43:59;101132.94;;;-11.62;77.33
60089;BME280;45961;53.574;55.878;2024-01-27T04:45:00;101128.69;;;-11.63;77.35
60089;BME280;45961;53.574;55.878;2024-01-27T04:46:02;101131.13;;;-11.56;77.48
60089;BME280;45961;53.574;55.878;2024-01-27T04:47:03;101138.97;;;-11.53;77.47
60089;BME280;45961;53.574;55.878;2024-01-27T04:48:04;101131.47;;;-11.53;77.42
60089;BME280;45961;53.574;55.878;2024-01-27T04:49:05;101124.75;;;-11.38;77.35
60089;BME280;45961;53.574;55.878;2024-01-27T04:50:05;101119.66;;;-11.24;77.15
60089;BME280;45961;53.574;55.878;2024-01-27T04:51:06;101120.91;;;-11.20;76.92
60089;BME280;45961;53.574;55.878;2024-01-27T04:52:08;101119.91;;;-11.29;76.59
60089;BME280;45961;53.574;55.878;2024-01-27T04:53:08;101120.22;;;-11.26;76.61
60089;BME280;45961;53.574;55.878;2024-01-27T04:54:09;101125.16;;;-11.19;76.76
60089;BME280;45961;53.574;55.878;2024-01-27T04:55:10;101123.78;;;-11.24;76.59
60089;BME280;45961;53.574;55.878;2024-01-27T04:56:11;101130.94;;;-11.27;76.39
60089;BME280;45961;53.574;55.878;2024-01-27T04:57:13;101124.31;;;-11.27;76.55
60089;BME280;45961;53.574;55.878;2024-01-27T04:58:14;101136.44;;;-11.23;76.53
60089;BME280;45961;53.574;55.878;2024-01-27T04:59:14;101136.53;;;-11.14;76.53
60089;BME280;45961;53.574;55.878;2024-01-27T05:00:15;101140.88;;;-11.20;76.40
60089;BME280;45961;53.574;55.878;2024-01-27T05:01:17;101138.78;;;-11.24;76.31
60089;BME280;45961;53.574;55.878;2024-01-27T05:02:18;101135.16;;;-11.19;76.31
60089;BME280;45961;53.574;55.878;2024-01-27T05:03:19;101131.63;;;-11.21;76.20
60089;BME280;45961;53.574;55.878;2024-01-27T05:04:19;101128.66;;;-11.10;76.12
60089;BME280;45961;53.574;55.878;2024-01-27T05:05:20;101133.34;;;-11.13;76.01
60089;BME280;45961;53.574;55.878;2024-01-27T05:06:23;101137.44;;;-11.13;76.04
60089;BME280;45961;53.574;55.878;2024-01-27T05:07:24;101128.25;;;-11.06;75.92
60089;BME280;45961;53.574;55.878;2024-01-27T05:08:25;101123.06;;;-11.00;75.89
60089;BME280;45961;53.574;55.878;2024-01-27T05:09:26;101120.59;;;-10.84;75.76
60089;BME280;45961;53.574;55.878;2024-01-27T05:10:28;101120.69;;;-10.76;75.52